sensor_id;sensor_type;location;lat;lon;timestamp;pressure;altitude;pressure_sealevel;temperature;humidity
9784;BME280;4931;44.874;-1.092;2023-08-12T00:00:51;101816.31;;;20.44;100.00
9784;BME280;4931;44.874;-1.092;2023-08-12T00:03:16;101822.25;;;20.51;100.00
9784;BME280;4931;44.874;-1.092;2023-08-12T00:05:42;101815.50;;;20.52;100.00
9784;BME280;4931;44.874;-1.092;2023-08-12T00:08:08;101815.97;;;20.46;100.00
9784;BME280;4931;44.874;-1.092;2023-08-12T00:10:34;101810.25;;;20.42;100.00
9784;BME280;4931;44.874;-1.092;2023-08-12T00:13:00;101813.19;;;20.46;100.00
9784;BME280;4931;44.874;-1.092;2023-08-12T00:15:25;101809.22;;;20.38;100.00
9784;BME280;4931;44.874;-1.092;2023-08-12T00:17:52;101812.72;;;20.44;100.00
9784;BME280;4931;44.874;-1.092;2023-08-12T00:20:17;101802.66;;;20.34;100.00
9784;BME280;4931;44.874;-1.092;2023-08-12T00:22:43;101814.66;;;20.34;100.00
9784;BME280;4931;44.874;-1.092;2023-08-12T00:25:09;101822.41;;;20.46;100.00
9784;BME280;4931;44.874;-1.092;2023-08-12T00:27:35;101802.56;;;20.48;100.00
9784;BME280;4931;44.874;-1.092;2023-08-12T00:30:00;101797.59;;;20.36;100.00
9784;BME280;4931;44.874;-1.092;2023-08-12T00:32:26;101789.72;;;20.29;100.00
9784;BME280;4931;44.874;-1.092;2023-08-12T00:34:52;101787.56;;;20.26;100.00
9784;BME280;4931;44.874;-1.092;2023-08-12T00:37:17;101775.75;;;20.20;100.00
9784;BME280;4931;44.874;-1.092;2023-08-12T00:39:42;101783.41;;;20.15;100.00
9784;BME280;4931;44.874;-1.092;2023-08-12T00:42:08;101773.47;;;20.22;100.00
9784;BME280;4931;44.874;-1.092;2023-08-12T00:44:34;101771.63;;;20.18;100.00
9784;BME280;4931;44.874;-1.092;2023-08-12T00:46:59;101773.91;;;20.16;100.00
9784;BME280;4931;44.874;-1.092;2023-08-12T00:49:26;101762.75;;;20.16;100.00
9784;BME280;4931;44.874;-1.092;2023-08-12T00:51:53;101775.69;;;20.12;100.00
9784;BME280;4931;44.874;-1.092;2023-08-12T00:54:20;101771.13;;;20.16;100.00
9784;BME280;4931;44.874;-1.092;2023-08-12T00:56:49;101761.13;;;20.15;100.00
9784;BME280;4931;44.874;-1.092;2023-08-12T00:59:16;101759.03;;;20.20;100.00
9784;BME280;4931;44.874;-1.092;2023-08-12T01:01:43;101784.75;;;20.26;100.00
9784;BME280;4931;44.874;-1.092;2023-08-12T01:04:08;101777.25;;;20.35;100.00
9784;BME280;4931;44.874;-1.092;2023-08-12T01:06:34;101773.00;;;20.38;100.00
9784;BME280;4931;44.874;-1.092;2023-08-12T01:09:01;101794.44;;;20.29;100.00
9784;BME280;4931;44.874;-1.092;2023-08-12T01:11:36;101802.66;;;20.25;100.00
9784;BME280;4931;44.874;-1.092;2023-08-12T01:14:37;101804.06;;;20.14;100.00
9784;BME280;4931;44.874;-1.092;2023-08-12T01:17:06;101805.56;;;20.20;100.00
9784;BME280;4931;44.874;-1.092;2023-08-12T01:19:36;101798.22;;;20.24;100.00
9784;BME280;4931;44.874;-1.092;2023-08-12T01:22:03;101798.94;;;20.38;100.00
9784;BME280;4931;44.874;-1.092;2023-08-12T01:24:45;101797.50;;;20.59;100.00
9784;BME280;4931;44.874;-1.092;2023-08-12T01:27:12;101797.31;;;20.55;100.00
9784;BME280;4931;44.874;-1.092;2023-08-12T01:29:41;101792.22;;;20.39;100.00
9784;BME280;4931;44.874;-1.092;2023-08-12T01:35:01;101794.25;;;20.16;100.00
9784;BME280;4931;44.874;-1.092;2023-08-12T01:37:29;101804.41;;;20.21;100.00
9784;BME280;4931;44.874;-1.092;2023-08-12T01:40:00;101786.69;;;20.17;100.00
9784;BME280;4931;44.874;-1.092;2023-08-12T01:42:25;101778.75;;;20.01;100.00
9784;BME280;4931;44.874;-1.092;2023-08-12T01:44:51;101777.25;;;19.95;100.00
9784;BME280;4931;44.874;-1.092;2023-08-12T01:47:17;101774.00;;;20.02;100.00
9784;BME280;4931;44.874;-1.092;2023-08-12T01:49:43;101738.59;;;19.94;100.00
9784;BME280;4931;44.874;-1.092;2023-08-12T01:52:08;101774.81;;;20.02;100.00
9784;BME280;4931;44.874;-1.092;2023-08-12T01:54:34;101777.47;;;20.07;100.00
9784;BME280;4931;44.874;-1.092;2023-08-12T01:57:06;101788.16;;;20.14;100.00
9784;BME280;4931;44.874;-1.092;2023-08-12T01:59:36;101783.16;;;20.25;100.00
9784;BME280;4931;44.874;-1.092;2023-08-12T02:02:02;101767.78;;;20.05;100.00
9784;BME280;4931;44.874;-1.092;2023-08-12T02:04:28;101769.91;;;19.99;100.00
9784;BME280;4931;44.874;-1.092;2023-08-12T02:06:54;101795.03;;;20.08;100.00
9784;BME280;4931;44.874;-1.092;2023-08-12T02:09:20;101805.19;;;20.13;100.00
9784;BME280;4931;44.874;-1.092;2023-08-12T02:11:46;101804.25;;;20.17;100.00
9784;BME280;4931;44.874;-1.092;2023-08-12T02:14:11;101800.47;;;20.22;100.00
9784;BME280;4931;44.874;-1.092;2023-08-12T02:16:37;101787.88;;;20.24;100.00
9784;BME280;4931;44.874;-1.092;2023-08-12T02:19:03;101791.00;;;20.23;100.00
9784;BME280;4931;44.874;-1.092;2023-08-12T02:21:28;101786.34;;;20.10;100.00
9784;BME280;4931;44.874;-1.092;2023-08-12T02:23:54;101777.47;;;20.07;100.00
9784;BME280;4931;44.874;-1.092;2023-08-12T02:26:20;101774.34;;;20.00;100.00
9784;BME280;4931;44.874;-1.092;2023-08-12T02:28:45;101766.88;;;19.87;100.00
9784;BME280;4931;44.874;-1.092;2023-08-12T02:31:11;101788.88;;;19.97;100.00
9784;BME280;4931;44.874;-1.092;2023-08-12T02:33:37;101770.19;;;19.89;100.00
9784;BME280;4931;44.874;-1.092;2023-08-12T02:36:02;101795.09;;;19.94;100.00
9784;BME280;4931;44.874;-1.092;2023-08-12T02:38:28;101791.66;;;19.97;100.00
9784;BME280;4931;44.874;-1.092;2023-08-12T02:40:53;101787.09;;;20.01;100.00
9784;BME280;4931;44.874;-1.092;2023-08-12T02:43:19;101774.34;;;20.00;100.00
9784;BME280;4931;44.874;-1.092;2023-08-12T02:45:44;101768.91;;;19.95;100.00
9784;BME280;4931;44.874;-1.092;2023-08-12T02:48:10;101780.41;;;20.02;100.00
9784;BME280;4931;44.874;-1.092;2023-08-12T02:50:37;101781.03;;;19.99;100.00
9784;BME280;4931;44.874;-1.092;2023-08-12T02:53:02;101771.63;;;19.86;100.00
9784;BME280;4931;44.874;-1.092;2023-08-12T02:55:28;101767.25;;;19.94;100.00
9784;BME280;4931;44.874;-1.092;2023-08-12T02:57:54;101775.28;;;19.96;100.00
9784;BME280;4931;44.874;-1.092;2023-08-12T03:00:20;101774.66;;;19.99;100.00
9784;BME280;4931;44.874;-1.092;2023-08-12T03:02:47;101769.53;;;19.92;100.00
9784;BME280;4931;44.874;-1.092;2023-08-12T03:05:12;101763.81;;;19.97;100.00
9784;BME280;4931;44.874;-1.092;2023-08-12T03:07:38;101763.81;;;19.97;100.00
9784;BME280;4931;44.874;-1.092;2023-08-12T03:10:04;101767.47;;;20.06;100.00
9784;BME280;4931;44.874;-1.092;2023-08-12T03:12:30;101752.53;;;20.02;100.00
9784;BME280;4931;44.874;-1.092;2023-08-12T03:14:55;101762.69;;;19.98;100.00
9784;BME280;4931;44.874;-1.092;2023-08-12T03:17:21;101754.78;;;19.92;100.00
9784;BME280;4931;44.874;-1.092;2023-08-12T03:19:46;101748.97;;;19.79;100.00
9784;BME280;4931;44.874;-1.092;2023-08-12T03:22:11;101749.69;;;19.62;100.00
9784;BME280;4931;44.874;-1.092;2023-08-12T03:24:37;101753.97;;;19.68;100.00
9784;BME280;4931;44.874;-1.092;2023-08-12T03:27:03;101760.06;;;19.70;100.00
9784;BME280;4931;44.874;-1.092;2023-08-12T03:29:28;101758.78;;;19.77;100.00
9784;BME280;4931;44.874;-1.092;2023-08-12T03:31:54;101760.94;;;19.80;100.00
9784;BME280;4931;44.874;-1.092;2023-08-12T03:34:19;101752.34;;;19.67;100.00
9784;BME280;4931;44.874;-1.092;2023-08-12T03:36:45;101750.19;;;19.64;100.00
9784;BME280;4931;44.874;-1.092;2023-08-12T03:39:13;101757.06;;;19.67;100.00
9784;BME280;4931;44.874;-1.092;2023-08-12T03:41:39;101758.53;;;19.64;100.00
9784;BME280;4931;44.874;-1.092;2023-08-12T03:44:04;101754.75;;;19.60;100.00
9784;BME280;4931;44.874;-1.092;2023-08-12T03:46:30;101766.38;;;19.62;100.00
9784;BME280;4931;44.874;-1.092;2023-08-12T03:48:56;101766.19;;;19.58;100.00
9784;BME280;4931;44.874;-1.092;2023-08-12T03:51:22;101756.31;;;19.52;100.00
9784;BME280;4931;44.874;-1.092;2023-08-12T03:53:47;101764.34;;;19.54;100.00
9784;BME280;4931;44.874;-1.092;2023-08-12T03:56:13;101760.25;;;19.51;100.00
9784;BME280;4931;44.874;-1.092;2023-08-12T03:58:41;101764.00;;;19.47;100.00
9784;BME280;4931;44.874;-1.092;2023-08-12T04:01:07;101745.88;;;19.35;100.00
9784;BME280;4931;44.874;-1.092;2023-08-12T04:03:32;101764.88;;;19.33;100.00
9784;BME280;4931;44.874;-1.092;2023-08-12T04:05:58;101761.97;;;19.38;100.00
9784;BME280;4931;44.874;-1.092;2023-08-12T04:08:23;101757.41;;;19.43;100.00
9784;BME280;4931;44.874;-1.092;2023-08-12T04:10:50;101753.75;;;19.33;100.00
9784;BME280;4931;44.874;-1.092;2023-08-12T04:13:16;101762.38;;;19.32;100.00
9784;BME280;4931;44.874;-1.092;2023-08-12T04:15:42;101772.47;;;19.41;100.00
9784;BME280;4931;44.874;-1.092;2023-08-12T04:18:07;101768.16;;;19.35;100.00
9784;BME280;4931;44.874;-1.092;2023-08-12T04:20:33;101761.97;;;19.38;100.00
9784;BME280;4931;44.874;-1.092;2023-08-12T04:22:59;101754.38;;;19.30;100.00
9784;BME280;4931;44.874;-1.092;2023-08-12T04:25:25;101764.44;;;19.40;100.00
9784;BME280;4931;44.874;-1.092;2023-08-12T04:27:50;101750.34;;;19.00;100.00
9784;BME280;4931;44.874;-1.092;2023-08-12T04:30:16;101750.56;;;19.03;100.00
9784;BME280;4931;44.874;-1.092;2023-08-12T04:32:42;101748.47;;;19.09;100.00
9784;BME280;4931;44.874;-1.092;2023-08-12T04:35:07;101754.31;;;19.21;100.00
9784;BME280;4931;44.874;-1.092;2023-08-12T04:37:33;101752.34;;;19.22;100.00
9784;BME280;4931;44.874;-1.092;2023-08-12T04:39:59;101761.09;;;19.29;100.00
9784;BME280;4931;44.874;-1.092;2023-08-12T04:42:24;101766.13;;;19.27;100.00
9784;BME280;4931;44.874;-1.092;2023-08-12T04:44:50;101768.91;;;19.27;100.00
9784;BME280;4931;44.874;-1.092;2023-08-12T04:47:15;101769.53;;;19.24;100.00
9784;BME280;4931;44.874;-1.092;2023-08-12T04:49:41;101777.44;;;19.31;100.00
9784;BME280;4931;44.874;-1.092;2023-08-12T04:52:06;101781.56;;;19.33;100.00
9784;BME280;4931;44.874;-1.092;2023-08-12T04:54:32;101776.00;;;19.33;100.00
9784;BME280;4931;44.874;-1.092;2023-08-12T04:56:58;101785.47;;;19.32;100.00
9784;BME280;4931;44.874;-1.092;2023-08-12T04:59:25;101778.50;;;19.21;100.00
9784;BME280;4931;44.874;-1.092;2023-08-12T05:01:50;101780.69;;;19.24;100.00
9784;BME280;4931;44.874;-1.092;2023-08-12T05:04:16;101771.69;;;19.27;100.00
9784;BME280;4931;44.874;-1.092;2023-08-12T05:06:41;101778.91;;;19.28;100.00
9784;BME280;4931;44.874;-1.092;2023-08-12T05:09:07;101778.91;;;19.28;100.00
9784;BME280;4931;44.874;-1.092;2023-08-12T05:11:34;101789.03;;;19.24;100.00
9784;BME280;4931;44.874;-1.092;2023-08-12T05:13:59;101793.94;;;19.27;100.00
9784;BME280;4931;44.874;-1.092;2023-08-12T05:16:25;101794.94;;;19.31;100.00
9784;BME280;4931;44.874;-1.092;2023-08-12T05:18:50;101797.75;;;19.31;100.00
9784;BME280;4931;44.874;-1.092;2023-08-12T05:21:16;101787.94;;;19.34;100.00
9784;BME280;4931;44.874;-1.092;2023-08-12T05:23:42;101797.81;;;19.40;100.00
9784;BME280;4931;44.874;-1.092;2023-08-12T05:26:07;101793.06;;;19.40;100.00
9784;BME280;4931;44.874;-1.092;2023-08-12T05:28:33;101792.44;;;19.44;100.00
9784;BME280;4931;44.874;-1.092;2023-08-12T05:30:58;101771.81;;;19.45;100.00
9784;BME280;4931;44.874;-1.092;2023-08-12T05:33:24;101783.94;;;19.26;100.00
9784;BME280;4931;44.874;-1.092;2023-08-12T05:35:50;101787.47;;;19.18;100.00
9784;BME280;4931;44.874;-1.092;2023-08-12T05:38:16;101792.69;;;19.33;100.00
9784;BME280;4931;44.874;-1.092;2023-08-12T05:40:41;101786.84;;;19.21;100.00
9784;BME280;4931;44.874;-1.092;2023-08-12T05:43:07;101775.81;;;19.30;100.00
9784;BME280;4931;44.874;-1.092;2023-08-12T05:45:33;101776.25;;;19.23;100.00
9784;BME280;4931;44.874;-1.092;2023-08-12T05:47:59;101775.13;;;19.24;100.00
9784;BME280;4931;44.874;-1.092;2023-08-12T05:50:24;101779.47;;;19.39;100.00
9784;BME280;4931;44.874;-1.092;2023-08-12T05:52:50;101772.66;;;19.45;100.00
9784;BME280;4931;44.874;-1.092;2023-08-12T05:55:15;101784.28;;;19.47;100.00
9784;BME280;4931;44.874;-1.092;2023-08-12T05:57:41;101790.16;;;19.46;100.00
9784;BME280;4931;44.874;-1.092;2023-08-12T06:00:07;101793.22;;;19.58;100.00
9784;BME280;4931;44.874;-1.092;2023-08-12T06:02:32;101796.72;;;19.50;100.00
9784;BME280;4931;44.874;-1.092;2023-08-12T06:04:58;101777.66;;;19.57;100.00
9784;BME280;4931;44.874;-1.092;2023-08-12T06:07:23;101792.94;;;19.68;100.00
9784;BME280;4931;44.874;-1.092;2023-08-12T06:09:49;101786.22;;;19.69;100.00
9784;BME280;4931;44.874;-1.092;2023-08-12T06:12:16;101787.25;;;19.73;100.00
9784;BME280;4931;44.874;-1.092;2023-08-12T06:14:41;101798.47;;;19.82;100.00
9784;BME280;4931;44.874;-1.092;2023-08-12T06:17:07;101804.22;;;19.86;100.00
9784;BME280;4931;44.874;-1.092;2023-08-12T06:19:33;101810.81;;;19.90;100.00
9784;BME280;4931;44.874;-1.092;2023-08-12T06:21:59;101812.47;;;19.91;100.00
9784;BME280;4931;44.874;-1.092;2023-08-12T06:24:24;101809.53;;;19.96;100.00
9784;BME280;4931;44.874;-1.092;2023-08-12T06:26:50;101816.13;;;20.00;100.00
9784;BME280;4931;44.874;-1.092;2023-08-12T06:29:15;101811.53;;;20.04;100.00
9784;BME280;4931;44.874;-1.092;2023-08-12T06:31:41;101825.19;;;20.15;100.00
9784;BME280;4931;44.874;-1.092;2023-08-12T06:34:07;101819.84;;;20.27;100.00
9784;BME280;4931;44.874;-1.092;2023-08-12T06:36:32;101816.97;;;20.50;100.00
9784;BME280;4931;44.874;-1.092;2023-08-12T06:38:58;101820.97;;;20.66;100.00
9784;BME280;4931;44.874;-1.092;2023-08-12T06:41:24;101820.44;;;21.04;100.00
9784;BME280;4931;44.874;-1.092;2023-08-12T06:43:49;101814.88;;;21.04;100.00
9784;BME280;4931;44.874;-1.092;2023-08-12T06:46:15;101818.00;;;21.12;100.00
9784;BME280;4931;44.874;-1.092;2023-08-12T06:48:40;101813.56;;;21.11;100.00
9784;BME280;4931;44.874;-1.092;2023-08-12T06:51:06;101811.44;;;21.16;100.00
9784;BME280;4931;44.874;-1.092;2023-08-12T06:53:38;101817.66;;;21.22;100.00
9784;BME280;4931;44.874;-1.092;2023-08-12T06:56:04;101816.19;;;21.16;100.00
9784;BME280;4931;44.874;-1.092;2023-08-12T06:58:30;101815.22;;;21.12;100.00
9784;BME280;4931;44.874;-1.092;2023-08-12T07:00:55;101821.28;;;21.14;100.00
9784;BME280;4931;44.874;-1.092;2023-08-12T07:03:22;101817.19;;;21.20;100.00
9784;BME280;4931;44.874;-1.092;2023-08-12T07:05:48;101840.81;;;21.14;100.00
9784;BME280;4931;44.874;-1.092;2023-08-12T07:08:13;101832.91;;;21.07;100.00
9784;BME280;4931;44.874;-1.092;2023-08-12T07:10:40;101844.72;;;21.13;100.00
9784;BME280;4931;44.874;-1.092;2023-08-12T07:13:05;101837.84;;;21.19;100.00
9784;BME280;4931;44.874;-1.092;2023-08-12T07:15:31;101852.78;;;21.23;100.00
9784;BME280;4931;44.874;-1.092;2023-08-12T07:17:56;101850.50;;;21.25;100.00
9784;BME280;4931;44.874;-1.092;2023-08-12T07:20:24;101854.09;;;21.26;100.00
9784;BME280;4931;44.874;-1.092;2023-08-12T07:22:49;101849.34;;;21.26;100.00
9784;BME280;4931;44.874;-1.092;2023-08-12T07:25:15;101839.00;;;21.27;100.00
9784;BME280;4931;44.874;-1.092;2023-08-12T07:27:41;101855.59;;;21.32;100.00
9784;BME280;4931;44.874;-1.092;2023-08-12T07:30:07;101855.09;;;21.38;100.00
9784;BME280;4931;44.874;-1.092;2023-08-12T07:32:33;101856.59;;;21.45;100.00
9784;BME280;4931;44.874;-1.092;2023-08-12T07:34:59;101851.81;;;21.28;100.00
9784;BME280;4931;44.874;-1.092;2023-08-12T07:37:25;101851.34;;;21.34;100.00
9784;BME280;4931;44.874;-1.092;2023-08-12T07:39:51;101847.56;;;21.65;100.00
9784;BME280;4931;44.874;-1.092;2023-08-12T07:42:16;101849.38;;;21.61;100.00
9784;BME280;4931;44.874;-1.092;2023-08-12T07:44:43;101855.94;;;21.65;100.00
9784;BME280;4931;44.874;-1.092;2023-08-12T07:47:08;101848.41;;;21.57;100.00
9784;BME280;4931;44.874;-1.092;2023-08-12T07:49:34;101842.00;;;21.65;100.00
9784;BME280;4931;44.874;-1.092;2023-08-12T07:52:00;101837.72;;;21.77;100.00
9784;BME280;4931;44.874;-1.092;2023-08-12T07:54:26;101850.03;;;21.84;100.00
9784;BME280;4931;44.874;-1.092;2023-08-12T07:56:52;101852.81;;;21.84;100.00
9784;BME280;4931;44.874;-1.092;2023-08-12T07:59:21;101855.56;;;22.11;100.00
9784;BME280;4931;44.874;-1.092;2023-08-12T08:01:46;101853.66;;;21.76;100.00
9784;BME280;4931;44.874;-1.092;2023-08-12T08:04:12;101848.72;;;21.82;100.00
9784;BME280;4931;44.874;-1.092;2023-08-12T08:06:37;101853.78;;;21.88;100.00
9784;BME280;4931;44.874;-1.092;2023-08-12T08:09:03;101848.69;;;21.99;100.00
9784;BME280;4931;44.874;-1.092;2023-08-12T08:11:30;101865.59;;;22.03;100.00
9784;BME280;4931;44.874;-1.092;2023-08-12T08:13:57;101868.22;;;22.17;100.00
9784;BME280;4931;44.874;-1.092;2023-08-12T08:16:23;101866.91;;;22.05;100.00
9784;BME280;4931;44.874;-1.092;2023-08-12T08:18:50;101865.59;;;22.12;100.00
9784;BME280;4931;44.874;-1.092;2023-08-12T08:21:16;101866.06;;;22.14;100.00
9784;BME280;4931;44.874;-1.092;2023-08-12T08:23:42;101869.00;;;22.26;100.00
9784;BME280;4931;44.874;-1.092;2023-08-12T08:26:08;101867.50;;;22.37;100.00
9784;BME280;4931;44.874;-1.092;2023-08-12T08:28:34;101866.19;;;22.44;100.00
9784;BME280;4931;44.874;-1.092;2023-08-12T08:31:00;101871.59;;;22.49;100.00
9784;BME280;4931;44.874;-1.092;2023-08-12T08:33:26;101866.84;;;22.41;100.00
9784;BME280;4931;44.874;-1.092;2023-08-12T08:35:52;101874.88;;;22.33;100.00
9784;BME280;4931;44.874;-1.092;2023-08-12T08:38:17;101884.75;;;22.31;100.00
9784;BME280;4931;44.874;-1.092;2023-08-12T08:40:43;101886.13;;;22.16;100.00
9784;BME280;4931;44.874;-1.092;2023-08-12T08:43:09;101882.03;;;22.04;100.00
9784;BME280;4931;44.874;-1.092;2023-08-12T08:45:38;101889.44;;;22.00;100.00
9784;BME280;4931;44.874;-1.092;2023-08-12T08:48:05;101889.38;;;22.18;100.00
9784;BME280;4931;44.874;-1.092;2023-08-12T08:50:31;101882.81;;;22.22;100.00
9784;BME280;4931;44.874;-1.092;2023-08-12T08:52:57;101888.06;;;22.24;100.00
9784;BME280;4931;44.874;-1.092;2023-08-12T08:55:25;101889.19;;;22.32;100.00
9784;BME280;4931;44.874;-1.092;2023-08-12T08:57:50;101893.94;;;22.49;100.00
9784;BME280;4931;44.874;-1.092;2023-08-12T09:00:17;101891.03;;;22.36;100.00
9784;BME280;4931;44.874;-1.092;2023-08-12T09:02:45;101902.22;;;22.36;100.00
9784;BME280;4931;44.874;-1.092;2023-08-12T09:05:13;101898.56;;;22.45;100.00
9784;BME280;4931;44.874;-1.092;2023-08-12T09:07:42;101904.34;;;22.40;100.00
9784;BME280;4931;44.874;-1.092;2023-08-12T09:10:08;101900.72;;;22.39;100.00
9784;BME280;4931;44.874;-1.092;2023-08-12T09:12:34;101901.00;;;22.55;100.00
9784;BME280;4931;44.874;-1.092;2023-08-12T09:14:59;101910.66;;;22.66;100.00
9784;BME280;4931;44.874;-1.092;2023-08-12T09:17:25;101918.78;;;22.50;100.00
9784;BME280;4931;44.874;-1.092;2023-08-12T09:19:51;101911.56;;;22.32;100.00
9784;BME280;4931;44.874;-1.092;2023-08-12T09:22:17;101914.31;;;22.58;100.00
9784;BME280;4931;44.874;-1.092;2023-08-12T09:24:43;101914.66;;;22.48;100.00
9784;BME280;4931;44.874;-1.092;2023-08-12T09:27:08;101918.59;;;22.47;100.00
9784;BME280;4931;44.874;-1.092;2023-08-12T09:29:35;101921.91;;;22.49;100.00
9784;BME280;4931;44.874;-1.092;2023-08-12T09:32:12;101924.53;;;22.54;100.00
9784;BME280;4931;44.874;-1.092;2023-08-12T09:34:49;101925.34;;;22.54;100.00
9784;BME280;4931;44.874;-1.092;2023-08-12T09:37:17;101927.00;;;22.47;100.00
9784;BME280;4931;44.874;-1.092;2023-08-12T09:39:43;101932.22;;;22.66;100.00
9784;BME280;4931;44.874;-1.092;2023-08-12T09:42:11;101937.81;;;22.66;100.00
9784;BME280;4931;44.874;-1.092;2023-08-12T09:44:39;101937.97;;;22.69;100.00
9784;BME280;4931;44.874;-1.092;2023-08-12T09:47:06;101939.75;;;22.74;100.00
9784;BME280;4931;44.874;-1.092;2023-08-12T09:49:31;101936.78;;;22.70;100.00
9784;BME280;4931;44.874;-1.092;2023-08-12T09:51:58;101937.81;;;22.66;100.00
9784;BME280;4931;44.874;-1.092;2023-08-12T09:54:26;101942.72;;;22.69;100.00
9784;BME280;4931;44.874;-1.092;2023-08-12T09:56:57;101922.69;;;22.67;100.00
9784;BME280;4931;44.874;-1.092;2023-08-12T09:59:24;101926.63;;;22.66;100.00
9784;BME280;4931;44.874;-1.092;2023-08-12T10:01:52;101930.75;;;22.60;100.00
9784;BME280;4931;44.874;-1.092;2023-08-12T10:04:22;101926.00;;;22.60;100.00
9784;BME280;4931;44.874;-1.092;2023-08-12T10:06:48;101936.00;;;22.61;100.00
9784;BME280;4931;44.874;-1.092;2023-08-12T10:09:17;101937.66;;;22.62;100.00
9784;BME280;4931;44.874;-1.092;2023-08-12T10:11:44;101935.34;;;22.64;100.00
9784;BME280;4931;44.874;-1.092;2023-08-12T10:14:11;101940.94;;;22.64;100.00
9784;BME280;4931;44.874;-1.092;2023-08-12T10:16:37;101933.28;;;22.82;100.00
9784;BME280;4931;44.874;-1.092;2023-08-12T10:19:05;101932.47;;;22.82;100.00
9784;BME280;4931;44.874;-1.092;2023-08-12T10:21:31;101941.91;;;22.68;100.00
9784;BME280;4931;44.874;-1.092;2023-08-12T10:23:58;101944.88;;;22.63;100.00
9784;BME280;4931;44.874;-1.092;2023-08-12T10:26:25;101942.28;;;22.58;100.00
9784;BME280;4931;44.874;-1.092;2023-08-12T10:28:51;101944.88;;;22.63;100.00
9784;BME280;4931;44.874;-1.092;2023-08-12T10:31:16;101936.69;;;22.58;100.00
9784;BME280;4931;44.874;-1.092;2023-08-12T10:33:43;101944.09;;;22.54;100.00
9784;BME280;4931;44.874;-1.092;2023-08-12T10:36:09;101942.63;;;22.48;100.00
9784;BME280;4931;44.874;-1.092;2023-08-12T10:38:35;101941.63;;;22.52;100.00
9784;BME280;4931;44.874;-1.092;2023-08-12T10:41:20;101940.16;;;22.55;100.00
9784;BME280;4931;44.874;-1.092;2023-08-12T10:49:05;101942.16;;;22.46;100.00
9784;BME280;4931;44.874;-1.092;2023-08-12T10:54:15;101938.34;;;22.42;100.00
9784;BME280;4931;44.874;-1.092;2023-08-12T11:00:02;101936.75;;;22.41;100.00
9784;BME280;4931;44.874;-1.092;2023-08-12T11:02:30;101946.28;;;22.40;100.00
9784;BME280;4931;44.874;-1.092;2023-08-12T11:05:00;101941.66;;;22.44;100.00
9784;BME280;4931;44.874;-1.092;2023-08-12T11:10:09;101929.44;;;22.57;100.00
9784;BME280;4931;44.874;-1.092;2023-08-12T11:12:35;101927.94;;;22.68;100.00
9784;BME280;4931;44.874;-1.092;2023-08-12T11:15:02;101926.44;;;22.71;100.00
9784;BME280;4931;44.874;-1.092;2023-08-12T11:17:34;101930.34;;;22.79;100.00
9784;BME280;4931;44.874;-1.092;2023-08-12T11:20:00;101921.63;;;22.80;100.00
9784;BME280;4931;44.874;-1.092;2023-08-12T11:22:25;101919.16;;;22.79;100.00
9784;BME280;4931;44.874;-1.092;2023-08-12T11:24:51;101919.28;;;22.91;100.00
9784;BME280;4931;44.874;-1.092;2023-08-12T11:27:18;101920.72;;;22.97;100.00
9784;BME280;4931;44.874;-1.092;2023-08-12T11:29:43;101919.09;;;22.96;100.00
9784;BME280;4931;44.874;-1.092;2023-08-12T11:32:09;101919.38;;;23.03;100.00
9784;BME280;4931;44.874;-1.092;2023-08-12T11:34:35;101918.34;;;23.17;100.00
9784;BME280;4931;44.874;-1.092;2023-08-12T11:37:02;101924.22;;;23.24;100.00
9784;BME280;4931;44.874;-1.092;2023-08-12T11:39:28;101915.81;;;23.24;100.00
9784;BME280;4931;44.874;-1.092;2023-08-12T11:41:54;101904.91;;;23.01;100.00
9784;BME280;4931;44.874;-1.092;2023-08-12T11:44:22;101916.38;;;23.09;100.00
9784;BME280;4931;44.874;-1.092;2023-08-12T11:46:49;101912.81;;;22.99;100.00
9784;BME280;4931;44.874;-1.092;2023-08-12T11:49:15;101918.09;;;23.01;100.00
9784;BME280;4931;44.874;-1.092;2023-08-12T11:51:42;101921.50;;;23.07;100.00
9784;BME280;4931;44.874;-1.092;2023-08-12T11:54:09;101918.81;;;22.89;100.00
9784;BME280;4931;44.874;-1.092;2023-08-12T11:56:35;101922.91;;;22.92;100.00
9784;BME280;4931;44.874;-1.092;2023-08-12T11:59:00;101925.72;;;22.83;100.00
9784;BME280;4931;44.874;-1.092;2023-08-12T12:01:26;101916.38;;;22.79;100.00
9784;BME280;4931;44.874;-1.092;2023-08-12T12:03:54;101919.63;;;22.81;100.00
9784;BME280;4931;44.874;-1.092;2023-08-12T12:06:36;101926.91;;;23.12;100.00
9784;BME280;4931;44.874;-1.092;2023-08-12T12:09:08;101921.16;;;23.17;100.00
9784;BME280;4931;44.874;-1.092;2023-08-12T12:11:42;101915.63;;;23.29;100.00
9784;BME280;4931;44.874;-1.092;2023-08-12T12:14:08;101920.44;;;23.50;100.00
9784;BME280;4931;44.874;-1.092;2023-08-12T12:16:45;101922.94;;;23.64;100.00
9784;BME280;4931;44.874;-1.092;2023-08-12T12:19:21;101920.38;;;23.59;100.00
9784;BME280;4931;44.874;-1.092;2023-08-12T12:21:51;101918.09;;;23.52;100.00
9784;BME280;4931;44.874;-1.092;2023-08-12T12:24:18;101923.50;;;23.57;100.00
9784;BME280;4931;44.874;-1.092;2023-08-12T12:26:44;101926.84;;;23.71;100.00
9784;BME280;4931;44.874;-1.092;2023-08-12T12:29:11;101921.44;;;23.66;100.00
9784;BME280;4931;44.874;-1.092;2023-08-12T12:31:40;101926.09;;;23.62;100.00
9784;BME280;4931;44.874;-1.092;2023-08-12T12:34:06;101932.72;;;23.58;100.00
9784;BME280;4931;44.874;-1.092;2023-08-12T12:36:37;101922.47;;;23.62;100.00
9784;BME280;4931;44.874;-1.092;2023-08-12T12:39:06;101926.03;;;23.50;100.00
9784;BME280;4931;44.874;-1.092;2023-08-12T12:41:35;101922.19;;;23.33;100.00
9784;BME280;4931;44.874;-1.092;2023-08-12T12:44:01;101933.38;;;23.33;100.00
9784;BME280;4931;44.874;-1.092;2023-08-12T12:46:29;101926.66;;;23.26;100.00
9784;BME280;4931;44.874;-1.092;2023-08-12T12:48:55;101929.00;;;23.24;100.00
9784;BME280;4931;44.874;-1.092;2023-08-12T12:51:20;101924.38;;;23.28;100.00
9784;BME280;4931;44.874;-1.092;2023-08-12T12:53:46;101917.13;;;23.27;100.00
9784;BME280;4931;44.874;-1.092;2023-08-12T12:56:11;101919.66;;;23.11;100.00
9784;BME280;4931;44.874;-1.092;2023-08-12T12:58:37;101927.09;;;23.07;100.00
9784;BME280;4931;44.874;-1.092;2023-08-12T13:01:03;101937.50;;;22.97;100.00
9784;BME280;4931;44.874;-1.092;2023-08-12T13:03:30;101929.91;;;23.07;100.00